Time;durP1;ratioP1;P1;durP2;ratioP2;P2;SDS_P1;SDS_P2;PMS_P1;PMS_P2;Temp;Humidity;BMP_temperature;BMP_pressure;BME280_temperature;BME280_humidity;BME280_pressure;Samples;Min_cycle;Max_cycle;Signal;HPM_P1;HPM_P2
2021/03/20 00:03:07;;;;;;;5.55;2.58;;;;;;;-1.25;64.56;98292.72;10100940;29;20049;-79
2021/03/20 00:08:28;;;;;;;4.75;2.20;;;;;;;-1.25;64.37;98300.19;10126521;29;20051;-78
2021/03/20 00:13:48;;;;;;;5.28;2.90;;;;;;;-1.31;64.35;98296.72;10113511;29;20049;-79
2021/03/20 00:19:08;;;;;;;4.18;1.98;;;;;;;-1.45;65.00;98310.19;10113166;29;20056;-79
2021/03/20 00:24:27;;;;;;;4.38;2.38;;;;;;;-1.51;65.05;98305.97;10100056;29;20544;-79
2021/03/20 00:29:48;;;;;;;4.78;2.08;;;;;;;-1.55;64.65;98313.66;10099711;29;20051;-78
2021/03/20 00:35:09;;;;;;;4.60;2.17;;;;;;;-1.60;64.80;98317.16;10099972;29;20045;-78
2021/03/20 00:40:30;;;;;;;6.88;2.22;;;;;;;-1.55;64.98;98317.16;10112537;29;20040;-78
2021/03/20 00:45:50;;;;;;;3.60;2.28;;;;;;;-1.37;65.12;98315.88;10099339;29;20100;-78
2021/03/20 00:51:10;;;;;;;6.07;2.78;;;;;;;-1.17;64.82;98317.59;10111960;29;20385;-78
2021/03/20 00:56:29;;;;;;;5.22;2.60;;;;;;;-1.06;64.56;98325.81;10112053;29;20378;-79
2021/03/20 01:01:49;;;;;;;4.57;2.80;;;;;;;-1.08;64.93;98328.28;10098879;29;20052;-79
2021/03/20 01:07:09;;;;;;;4.50;2.50;;;;;;;-1.07;64.15;98331.78;10110796;29;20049;-78
2021/03/20 01:12:29;;;;;;;5.07;2.47;;;;;;;-1.03;64.52;98326.78;10111017;29;20052;-78
2021/03/20 01:17:49;;;;;;;5.03;2.22;;;;;;;-1.10;64.29;98328.06;10098181;29;20445;-78
2021/03/20 01:23:09;;;;;;;3.90;2.08;;;;;;;-1.23;64.26;98327.84;10097906;29;20456;-78
2021/03/20 01:28:31;;;;;;;4.18;2.00;;;;;;;-1.39;64.55;98332.09;10097567;29;20048;-78
2021/03/20 01:33:51;;;;;;;2.85;1.55;;;;;;;-1.54;64.48;98326.13;10097527;29;20045;-79
2021/03/20 01:39:10;;;;;;;6.07;2.08;;;;;;;-1.63;64.59;98340.06;10110434;29;20091;-79
2021/03/20 01:44:31;;;;;;;3.40;1.58;;;;;;;-1.60;65.32;98342.56;10109908;29;20049;-78
2021/03/20 01:49:51;;;;;;;3.42;1.95;;;;;;;-1.61;65.03;98341.06;10109987;29;20512;-79
2021/03/20 01:55:14;;;;;;;3.72;1.98;;;;;;;-1.60;65.17;98348.03;10109724;29;20037;-79
2021/03/20 02:01:23;;;;;;;3.80;1.90;;;;;;;-1.64;65.25;98344.03;10110008;29;20052;-78
2021/03/20 02:06:43;;;;;;;4.57;1.63;;;;;;;-1.66;65.73;98354.72;10017255;29;20065;-79
2021/03/20 02:12:17;;;;;;;3.92;1.85;;;;;;;-1.64;65.28;98346.75;9991573;29;20062;-78
2021/03/20 02:18:11;;;;;;;3.53;1.80;;;;;;;-1.61;64.97;98346.53;9992566;29;20505;-78
2021/03/20 02:24:09;;;;;;;6.70;2.47;;;;;;;-1.48;65.84;98362.47;9978551;29;20062;-78
2021/03/20 02:29:49;;;;;;;3.45;2.25;;;;;;;-1.49;64.94;98358.97;10017016;29;20418;-78
2021/03/20 02:35:40;;;;;;;3.47;1.88;;;;;;;-1.38;64.33;98371.16;10037149;29;20492;-78
2021/03/20 02:41:12;;;;;;;4.53;1.90;;;;;;;-1.37;63.46;98364.44;10112332;29;20052;-78
2021/03/20 02:47:05;;;;;;;3.40;1.88;;;;;;;-1.40;62.46;98366.19;10109289;29;20056;-78
2021/03/20 02:52:49;;;;;;;5.13;2.03;;;;;;;-1.38;62.59;98374.66;10111888;29;20154;-79
2021/03/20 02:58:31;;;;;;;4.95;1.70;;;;;;;-1.34;62.45;98374.41;10097940;29;20052;-78
2021/03/20 03:03:52;;;;;;;3.08;1.95;;;;;;;-1.35;62.17;98379.16;10096288;29;20049;-78
2021/03/20 03:09:33;;;;;;;2.85;1.65;;;;;;;-1.39;63.03;98383.38;10108515;29;20516;-78
2021/03/20 03:15:23;;;;;;;4.47;2.20;;;;;;;-1.37;63.23;98386.34;10108038;29;20511;-78
2021/03/20 03:20:54;;;;;;;5.03;2.20;;;;;;;-1.42;63.32;98396.06;10109757;29;20057;-79
2021/03/20 03:26:22;;;;;;;3.42;1.85;;;;;;;-1.51;63.16;98397.06;10096185;29;20112;-78
2021/03/20 03:31:59;;;;;;;4.70;1.80;;;;;;;-1.53;63.38;98407.03;10089938;29;20044;-79
2021/03/20 03:37:37;;;;;;;4.50;1.73;;;;;;;-1.46;63.72;98403.78;10115992;29;20049;-78
2021/03/20 03:42:57;;;;;;;4.47;1.85;;;;;;;-1.55;63.52;98404.75;10104325;29;20048;-79
2021/03/20 03:48:19;;;;;;;3.63;1.65;;;;;;;-1.54;63.00;98406.28;10088909;29;20041;-79
2021/03/20 03:53:38;;;;;;;3.60;1.77;;;;;;;-1.54;62.82;98411.00;10102192;29;20052;-78
2021/03/20 03:59:12;;;;;;;3.53;1.50;;;;;;;-1.60;62.68;98416.47;10101216;29;20044;-79
2021/03/20 04:05:04;;;;;;;3.88;1.92;;;;;;;-1.68;62.94;98423.69;10091346;29;20045;-80
2021/03/20 04:10:46;;;;;;;4.20;1.70;;;;;;;-1.84;63.34;98427.13;10115701;29;20045;-79
2021/03/20 04:16:15;;;;;;;3.83;1.92;;;;;;;-2.05;62.59;98427.31;10100900;29;20053;-78
2021/03/20 04:21:47;;;;;;;3.22;1.70;;;;;;;-2.06;63.23;98434.03;10101720;29;20080;-79
2021/03/20 04:27:17;;;;;;;4.18;1.95;;;;;;;-1.96;63.76;98431.81;10076235;29;20048;-79
2021/03/20 04:33:01;;;;;;;6.07;2.00;;;;;;;-2.12;63.16;98438.75;10100596;29;20053;-79
2021/03/20 04:38:21;;;;;;;3.73;1.90;;;;;;;-2.42;63.14;98443.06;10115375;29;20104;-79
2021/03/20 04:43:41;;;;;;;4.53;2.10;;;;;;;-2.71;63.82;98444.91;10112357;29;20044;-79
2021/03/20 04:49:38;;;;;;;3.60;1.75;;;;;;;-3.00;63.88;98447.94;10086493;29;20527;-78
2021/03/20 04:54:58;;;;;;;4.15;1.83;;;;;;;-3.18;63.67;98446.34;10102640;29;20041;-79
2021/03/20 05:00:52;;;;;;;5.07;2.17;;;;;;;-3.32;64.12;98463.59;10098823;29;20045;-79
2021/03/20 05:06:14;;;;;;;6.50;2.38;;;;;;;-3.37;64.14;98448.69;10100570;29;20428;-78
2021/03/20 05:12:14;;;;;;;6.15;2.20;;;;;;;-3.39;64.20;98467.50;10098558;29;20044;-78
2021/03/20 05:17:34;;;;;;;3.88;1.95;;;;;;;-3.42;64.35;98465.00;10088716;29;20063;-79
2021/03/20 05:22:54;;;;;;;5.30;2.60;;;;;;;-3.33;64.37;98487.44;10088618;29;20071;-79
2021/03/20 05:28:14;;;;;;;7.65;2.65;;;;;;;-3.03;64.39;98493.38;10097060;29;20049;-78
2021/03/20 05:33:34;;;;;;;6.00;2.58;;;;;;;-2.60;63.77;98505.13;10098067;29;20044;-79
2021/03/20 05:38:54;;;;;;;6.13;2.47;;;;;;;-1.98;63.49;98507.44;10105116;29;20116;-79
2021/03/20 05:44:37;;;;;;;3.78;2.25;;;;;;;-1.03;62.68;98502.94;10111480;29;20044;-79
2021/03/20 05:50:25;;;;;;;4.70;2.65;;;;;;;2.07;64.43;98515.16;10125278;29;20100;-79
2021/03/20 05:55:46;;;;;;;6.45;3.42;;;;;;;5.94;63.84;98523.09;10062467;29;20041;-78
2021/03/20 06:01:57;;;;;;;5.82;2.78;;;;;;;9.58;60.05;98521.13;10071679;29;20082;-79
2021/03/20 06:07:40;;;;;;;5.13;2.80;;;;;;;12.06;54.75;98534.34;10053064;29;20060;-79
2021/03/20 06:13:31;;;;;;;8.45;3.55;;;;;;;12.36;49.97;98538.66;10084845;29;20049;-80
2021/03/20 06:19:47;;;;;;;4.65;3.05;;;;;;;11.89;46.04;98535.94;10062834;29;20060;-79
2021/03/20 06:25:25;;;;;;;4.03;3.00;;;;;;;13.23;43.25;98544.16;10098581;29;20052;-79
2021/03/20 06:30:47;;;;;;;4.43;2.47;;;;;;;15.50;36.87;98558.31;10086500;29;20045;-80
2021/03/20 06:36:20;;;;;;;3.58;2.47;;;;;;;13.62;35.03;98562.31;10059852;29;20060;-79
2021/03/20 06:41:43;;;;;;;3.72;2.30;;;;;;;12.44;34.55;98579.16;10071989;29;20385;-78
2021/03/20 06:47:17;;;;;;;4.35;1.92;;;;;;;8.39;34.74;98588.19;10109515;29;20056;-78
2021/03/20 06:52:37;;;;;;;4.95;2.95;;;;;;;5.59;36.20;98599.25;10084431;29;20044;-78
2021/03/20 06:58:26;;;;;;;4.68;2.78;;;;;;;6.20;38.72;98602.53;10096131;29;20044;-78
2021/03/20 07:04:48;;;;;;;5.40;3.05;;;;;;;5.29;37.39;98615.59;10113855;29;20052;-78
2021/03/20 07:10:38;;;;;;;4.15;2.70;;;;;;;10.03;43.48;98618.31;10118028;29;20044;-78
2021/03/20 07:16:16;;;;;;;4.05;2.53;;;;;;;18.44;30.06;98624.09;10076619;29;20045;-80
2021/03/20 07:21:40;;;;;;;4.03;1.85;;;;;;;28.56;22.81;98617.97;10026606;29;20046;-81
2021/03/20 07:27:33;;;;;;;4.57;1.92;;;;;;;34.93;13.66;98630.69;10025879;29;20557;-81
2021/03/20 07:32:52;;;;;;;2.90;1.75;;;;;;;35.94;9.51;98630.38;10015354;29;20101;-79
2021/03/20 07:38:30;;;;;;;2.33;1.45;;;;;;;35.07;8.28;98626.16;10050562;29;20041;-80
2021/03/20 07:43:58;;;;;;;4.03;1.60;;;;;;;31.78;7.80;98624.97;10046998;29;20053;-81
2021/03/20 07:49:27;;;;;;;4.05;1.70;;;;;;;23.16;9.69;98625.16;10062323;29;20048;-80
2021/03/20 07:55:01;;;;;;;3.15;1.70;;;;;;;17.42;13.33;98618.00;10088422;29;20052;-80
2021/03/20 08:00:36;;;;;;;3.47;1.77;;;;;;;15.14;15.47;98625.00;10074771;29;20077;-80
2021/03/20 08:06:17;;;;;;;2.70;1.95;;;;;;;14.14;15.75;98626.16;10064177;29;20037;-80
2021/03/20 08:11:39;;;;;;;3.72;1.52;;;;;;;17.27;17.77;98627.03;10064855;29;20552;-80
2021/03/20 08:17:00;;;;;;;4.18;2.05;;;;;;;13.79;16.33;98628.69;10070979;29;20045;-79
2021/03/20 08:23:03;;;;;;;3.85;1.63;;;;;;;16.76;18.23;98622.13;10105055;29;20476;-82
2021/03/20 08:29:06;;;;;;;2.92;1.70;;;;;;;14.53;16.80;98625.94;10121865;29;20408;-81
2021/03/20 08:36:18;;;;;;;4.15;1.30;;;;;;;9.84;20.19;98626.47;10167900;29;20045;-82
2021/03/20 08:41:53;;;;;;;4.10;1.60;;;;;;;7.44;21.16;98633.06;10119611;29;20550;-81
2021/03/20 08:48:20;;;;;;;2.67;1.30;;;;;;;11.40;21.20;98629.34;10169612;29;20073;-81
2021/03/20 08:54:33;;;;;;;2.65;1.33;;;;;;;16.50;22.64;98626.94;10476536;23;20508;-87
2021/03/20 08:59:53;;;;;;;2.63;1.10;;;;;;;32.85;11.85;98643.22;10088222;29;20064;-78
2021/03/20 09:05:30;;;;;;;5.32;1.90;;;;;;;37.89;7.15;98644.66;10116791;29;20060;-78
2021/03/20 09:11:09;;;;;;;3.05;1.38;;;;;;;27.17;7.51;98644.13;10097634;29;20048;-78
2021/03/20 09:16:41;;;;;;;2.60;0.98;;;;;;;28.21;9.24;98652.06;10097509;29;20048;-82
2021/03/20 09:22:12;;;;;;;2.65;0.75;;;;;;;21.64;10.37;98661.03;10123195;29;20044;-84
2021/03/20 09:51:54;;;;;;;2.55;0.70;;;;;;;13.16;16.01;98671.91;12052711;23;20104;-83
2021/03/20 09:57:28;;;;;;;2.00;0.85;;;;;;;10.37;18.00;98663.66;10249008;23;20040;31
2021/03/20 10:02:55;;;;;;;2.67;1.13;;;;;;;8.86;18.88;98662.66;11015057;23;20127;-84
2021/03/20 10:08:20;;;;;;;2.40;0.90;;;;;;;9.34;19.72;98665.44;10158314;29;20045;-85
2021/03/20 10:13:42;;;;;;;3.58;1.20;;;;;;;10.63;18.68;98662.28;10142296;29;20056;-84
2021/03/20 10:19:20;;;;;;;3.88;0.80;;;;;;;8.45;19.76;98677.03;10358768;23;20044;-83
2021/03/20 10:31:03;;;;;;;1.90;1.10;;;;;;;6.56;22.11;98674.69;10044515;29;20070;-78
2021/03/20 10:42:39;;;;;;;3.72;1.10;;;;;;;5.87;23.51;98672.66;10509359;23;20103;-78
2021/03/20 10:48:28;;;;;;;4.95;1.23;;;;;;;6.03;24.14;98675.03;10117516;29;20049;-79
2021/03/20 10:53:52;;;;;;;2.85;0.77;;;;;;;7.77;24.30;98669.41;10106618;29;20052;-80
2021/03/20 10:59:25;;;;;;;;;;;;;;;7.31;23.84;98678.38;10122143;29;20032;-81
2021/03/20 11:04:45;;;;;;;1.80;0.55;;;;;;;6.33;24.02;98673.78;10136933;29;20410;-80
2021/03/20 11:10:09;;;;;;;3.95;0.95;;;;;;;5.28;24.79;98684.06;10937551;23;20031;-80
2021/03/20 11:15:29;;;;;;;2.80;1.10;;;;;;;4.95;25.34;98682.00;10277280;23;20060;-78
2021/03/20 11:20:49;;;;;;;2.40;1.15;;;;;;;5.27;25.65;98681.81;10128793;29;20048;-78
2021/03/20 11:26:40;;;;;;;1.65;0.73;;;;;;;5.57;25.81;98667.56;10167454;29;20055;-79
2021/03/20 11:32:07;;;;;;;3.47;0.98;;;;;;;6.16;25.54;98667.91;10146074;29;20048;-78
2021/03/20 11:37:27;;;;;;;2.45;0.73;;;;;;;6.50;25.44;98667.81;10696647;23;20016;-82
2021/03/20 11:49:48;;;;;;;2.58;0.98;;;;;;;6.55;25.93;98666.91;11032650;23;20397;-79
2021/03/20 12:01:09;;;;;;;5.63;1.10;;;;;;;6.49;25.93;98663.53;11764218;23;20125;-82
2021/03/20 12:06:30;;;;;;;2.72;0.90;;;;;;;7.09;26.19;98659.59;10178317;29;20056;-82
2021/03/20 12:11:53;;;;;;;4.22;1.40;;;;;;;7.81;25.76;98653.09;10533586;23;20052;-83
2021/03/20 12:17:20;;;;;;;2.40;0.90;;;;;;;8.26;25.25;98646.78;10151517;29;20051;-79
2021/03/20 12:22:47;;;;;;;4.25;0.80;;;;;;;8.53;24.92;98650.69;10159064;29;20040;-79
2021/03/20 12:28:35;;;;;;;1.88;0.68;;;;;;;9.27;25.29;98627.22;10141241;29;20044;-80
2021/03/20 12:34:06;;;;;;;1.58;0.70;;;;;;;10.31;24.69;98616.44;10141957;29;20055;-79
2021/03/20 12:39:26;;;;;;;1.63;0.50;;;;;;;9.97;23.73;98612.25;10151919;29;20047;-79
2021/03/20 12:44:48;;;;;;;3.38;0.50;;;;;;;9.76;23.64;98603.50;10149895;29;20048;-82
2021/03/20 12:50:08;;;;;;;2.05;0.80;;;;;;;9.54;23.30;98604.38;10162950;29;20051;-80
2021/03/20 12:55:28;;;;;;;1.70;0.52;;;;;;;8.30;23.54;98603.41;10142481;29;20488;-79
2021/03/20 13:00:48;;;;;;;1.30;0.47;;;;;;;7.17;23.82;98588.91;10151300;29;20052;-80
2021/03/20 13:06:08;;;;;;;2.22;0.70;;;;;;;6.27;24.49;98578.91;10132103;29;20072;-78
2021/03/20 13:11:28;;;;;;;3.15;0.68;;;;;;;6.22;24.87;98583.31;10094953;29;20492;-81
2021/03/20 13:16:49;;;;;;;2.45;0.80;;;;;;;6.62;25.22;98579.47;10133299;29;20441;-81
2021/03/20 13:22:09;;;;;;;2.30;0.82;;;;;;;7.60;24.61;98567.84;10131117;29;20044;-81
2021/03/20 13:27:29;;;;;;;3.08;1.10;;;;;;;8.52;24.30;98559.44;10134932;29;20049;-80
2021/03/20 13:32:53;;;;;;;1.90;0.73;;;;;;;8.10;24.02;98557.06;10127910;29;20048;-81
2021/03/20 13:38:13;;;;;;;1.73;0.83;;;;;;;8.10;23.19;98551.50;10111154;29;20448;-80
2021/03/20 13:43:33;;;;;;;2.50;1.02;;;;;;;7.52;23.79;98552.47;10142479;29;20142;-81
2021/03/20 13:48:53;;;;;;;2.83;1.25;;;;;;;6.95;23.88;98541.66;10138199;29;20048;-81
2021/03/20 13:54:13;;;;;;;3.88;0.82;;;;;;;6.91;23.98;98550.34;10127804;29;20040;-80
2021/03/20 13:59:33;;;;;;;2.95;1.00;;;;;;;6.44;24.06;98539.63;10121533;29;20075;-81
2021/03/20 14:04:52;;;;;;;1.55;0.63;;;;;;;6.40;24.65;98537.22;10104104;29;20053;-79
2021/03/20 14:10:29;;;;;;;1.90;0.90;;;;;;;6.63;24.57;98553.94;10103248;29;20048;-79
2021/03/20 14:15:49;;;;;;;1.75;0.85;;;;;;;6.29;24.21;98551.41;10118690;29;20052;-79
2021/03/20 14:21:13;;;;;;;3.03;0.80;;;;;;;6.06;24.43;98548.47;10109153;29;20473;-79
2021/03/20 14:26:33;;;;;;;1.53;0.70;;;;;;;5.77;24.87;98550.47;10110279;29;20055;-78
2021/03/20 14:31:53;;;;;;;3.03;0.93;;;;;;;5.72;24.55;98545.81;10113479;29;20029;-81
2021/03/20 14:37:13;;;;;;;2.22;0.77;;;;;;;5.85;25.22;98536.69;10140167;29;20035;-84
2021/03/20 14:42:33;;;;;;;3.78;0.82;;;;;;;5.89;25.00;98526.00;10125604;29;20045;-74
2021/03/20 14:47:53;;;;;;;2.95;1.17;;;;;;;5.83;25.07;98534.44;10095742;29;20041;-76
2021/03/20 14:53:14;;;;;;;2.35;1.10;;;;;;;5.73;25.55;98516.84;10134168;29;20048;-77
2021/03/20 14:58:34;;;;;;;2.75;1.05;;;;;;;5.44;25.48;98536.19;10096043;29;20041;-79
2021/03/20 15:03:53;;;;;;;4.28;0.90;;;;;;;5.21;25.53;98526.94;10113851;29;20052;-76
2021/03/20 15:09:13;;;;;;;3.90;1.23;;;;;;;5.07;25.83;98520.72;10108070;29;20465;-75
2021/03/20 15:14:33;;;;;;;3.35;0.88;;;;;;;4.65;25.74;98514.38;10120905;29;20060;-78
2021/03/20 15:19:53;;;;;;;3.75;0.85;;;;;;;4.05;27.05;98515.09;10108102;29;20481;-75
2021/03/20 15:25:13;;;;;;;4.13;1.15;;;;;;;3.82;26.86;98511.28;10137047;29;20381;-76
2021/03/20 15:30:38;;;;;;;5.07;0.88;;;;;;;3.70;27.52;98517.03;10101864;29;20507;-75
2021/03/20 15:35:59;;;;;;;3.53;1.00;;;;;;;3.66;27.66;98518.59;10102413;29;20048;-75
2021/03/20 15:41:19;;;;;;;4.32;1.25;;;;;;;3.77;27.56;98506.63;10127532;29;20037;-75
2021/03/20 15:46:38;;;;;;;1.80;0.90;;;;;;;3.75;28.60;98509.88;10114110;29;20052;-76
2021/03/20 15:51:58;;;;;;;2.60;1.17;;;;;;;3.58;28.70;98504.69;10101160;29;20048;-75
2021/03/20 15:57:18;;;;;;;4.70;1.17;;;;;;;3.54;28.27;98509.03;10139838;29;20048;-75
2021/03/20 16:02:38;;;;;;;3.65;1.30;;;;;;;3.36;28.28;98496.78;10139716;29;20048;-75
2021/03/20 16:07:58;;;;;;;3.58;1.08;;;;;;;3.27;29.08;98506.22;10139376;29;20049;-74
2021/03/20 16:13:19;;;;;;;2.65;1.17;;;;;;;3.14;29.54;98504.16;10138931;29;20067;-74
2021/03/20 16:18:39;;;;;;;3.53;1.15;;;;;;;3.12;29.12;98503.22;10113072;29;20048;-75
2021/03/20 16:23:59;;;;;;;3.65;1.20;;;;;;;3.08;29.78;98497.97;10099800;29;20048;-75
2021/03/20 16:29:20;;;;;;;3.22;1.00;;;;;;;2.96;29.80;98498.69;10099557;29;20045;-75
2021/03/20 16:34:39;;;;;;;3.00;1.00;;;;;;;2.57;30.50;98495.25;10124306;29;20049;-75
2021/03/20 16:39:59;;;;;;;3.70;1.33;;;;;;;2.16;30.72;98500.28;10125895;29;20554;-76
2021/03/20 16:45:21;;;;;;;3.95;1.27;;;;;;;1.83;31.22;98485.63;10099724;29;20059;-76
2021/03/20 16:50:42;;;;;;;4.93;1.35;;;;;;;1.58;31.75;98484.91;10113716;29;20104;-77
2021/03/20 16:56:02;;;;;;;3.28;1.10;;;;;;;1.36;31.53;98482.41;10099629;29;20051;-76
2021/03/20 17:01:23;;;;;;;4.32;1.17;;;;;;;1.12;32.15;98488.59;10126191;29;20488;-80
2021/03/20 17:06:45;;;;;;;2.30;0.93;;;;;;;0.91;32.28;98484.75;10130137;29;20036;-78
2021/03/20 17:12:05;;;;;;;3.10;1.10;;;;;;;0.71;32.89;98481.16;10119788;29;20056;-77
2021/03/20 17:17:25;;;;;;;3.95;1.90;;;;;;;0.55;33.00;98498.50;10137034;29;20055;-75
2021/03/20 17:22:45;;;;;;;4.43;1.75;;;;;;;0.41;33.26;98488.59;10145415;29;20052;-81
2021/03/20 17:28:05;;;;;;;6.45;3.15;;;;;;;0.27;33.94;98482.16;10218671;23;20064;-82
2021/03/20 17:33:25;;;;;;;5.45;2.75;;;;;;;0.14;34.29;98482.72;10111838;29;20460;-76
2021/03/20 17:38:45;;;;;;;4.15;2.38;;;;;;;0.00;34.62;98483.81;10123373;29;20031;-82
2021/03/20 17:44:06;;;;;;;4.90;2.50;;;;;;;-0.11;34.72;98487.31;10124293;23;20568;-87
2021/03/20 17:49:26;;;;;;;5.13;2.42;;;;;;;-0.21;35.28;98477.13;10083289;29;20048;-78
2021/03/20 17:54:46;;;;;;;6.05;2.45;;;;;;;-0.31;35.76;98477.41;10084924;29;20052;-81
2021/03/20 18:00:07;;;;;;;5.32;2.50;;;;;;;-0.41;36.28;98473.44;10081534;29;20045;-79
2021/03/20 18:05:32;;;;;;;5.88;2.80;;;;;;;-0.52;36.60;98462.50;10073415;29;20049;-77
2021/03/20 18:10:54;;;;;;;7.65;3.67;;;;;;;-0.61;36.59;98466.25;10058489;29;20049;-75
2021/03/20 18:16:13;;;;;;;7.35;3.80;;;;;;;-0.68;37.08;98477.72;10071103;29;20041;-78
2021/03/20 18:21:33;;;;;;;7.82;3.85;;;;;;;-0.71;37.98;98467.00;10071069;29;20057;-76
2021/03/20 18:26:54;;;;;;;6.70;2.97;;;;;;;-0.77;37.59;98463.53;10083461;29;20455;-76
2021/03/20 18:32:13;;;;;;;5.55;2.60;;;;;;;-0.85;38.49;98457.06;10057922;29;20064;-76
2021/03/20 18:37:33;;;;;;;5.13;2.78;;;;;;;-0.94;38.56;98452.59;10058362;29;20049;-79
2021/03/20 18:42:53;;;;;;;7.82;3.13;;;;;;;-0.96;38.62;98446.88;10070525;29;20061;-80
2021/03/20 18:48:14;;;;;;;5.32;2.95;;;;;;;-1.04;39.06;98451.38;10057894;29;20037;-78
2021/03/20 18:53:34;;;;;;;5.30;2.80;;;;;;;-1.11;39.10;98449.88;10057725;29;20413;-76
2021/03/20 18:58:54;;;;;;;5.45;2.90;;;;;;;-1.15;39.61;98452.13;10058020;29;20063;-76
2021/03/20 19:04:16;;;;;;;5.32;3.22;;;;;;;-1.21;40.07;98454.09;10077359;29;20056;-76
2021/03/20 19:09:36;;;;;;;6.13;2.88;;;;;;;-1.23;40.32;98451.13;10064576;29;20041;-75
2021/03/20 19:14:55;;;;;;;7.53;3.72;;;;;;;-1.31;40.77;98456.34;10079330;29;20045;-82
2021/03/20 19:26:07;;;;;;;8.98;4.25;;;;;;;-1.32;41.41;98445.88;10493908;23;20063;-82
2021/03/20 19:37:56;;;;;;;8.25;4.40;;;;;;;-1.42;41.96;98433.66;10189651;23;20063;-80
2021/03/20 19:43:16;;;;;;;9.05;4.95;;;;;;;-1.50;42.26;98444.38;10154418;29;20551;-76
2021/03/20 19:48:36;;;;;;;12.40;6.45;;;;;;;-1.52;42.75;98427.69;10153640;29;20047;-76
2021/03/20 19:53:58;;;;;;;12.77;6.25;;;;;;;-1.58;43.15;98422.19;10154635;29;20048;-78
2021/03/20 19:59:19;;;;;;;11.00;6.13;;;;;;;-1.67;43.32;98416.94;10167454;29;20044;-78
2021/03/20 20:04:38;;;;;;;9.63;5.85;;;;;;;-1.73;43.83;98410.75;10152972;29;20507;-76
2021/03/20 20:09:58;;;;;;;12.15;6.85;;;;;;;-1.78;44.12;98403.25;10100834;29;20044;-77
2021/03/20 20:15:22;;;;;;;12.50;6.53;;;;;;;-1.84;44.12;98410.69;10100555;29;20040;-76
2021/03/20 20:20:43;;;;;;;11.82;6.45;;;;;;;-1.85;45.04;98406.47;10088786;29;20044;-76
2021/03/20 20:26:03;;;;;;;13.20;6.25;;;;;;;-1.92;44.87;98401.50;10100432;29;20056;-78
2021/03/20 20:31:24;;;;;;;10.20;6.50;;;;;;;-1.94;45.87;98417.63;10100678;29;20049;-76
2021/03/20 20:36:44;;;;;;;9.48;5.00;;;;;;;-1.89;45.47;98408.72;10113998;29;20060;-77
2021/03/20 20:42:05;;;;;;;10.20;6.15;;;;;;;-1.87;45.61;98406.22;10087613;29;20053;-77
2021/03/20 20:47:25;;;;;;;11.60;6.03;;;;;;;-1.89;45.68;98393.03;10074942;29;20485;-78
2021/03/20 20:52:44;;;;;;;11.40;5.68;;;;;;;-1.83;45.45;98395.78;10102716;29;20397;-79
2021/03/20 20:58:04;;;;;;;13.15;6.40;;;;;;;-1.72;45.60;98390.34;10114036;29;20045;-79
2021/03/20 21:03:25;;;;;;;10.48;5.18;;;;;;;-1.71;46.21;98391.81;10086742;29;20408;-78
2021/03/20 21:08:45;;;;;;;10.95;4.93;;;;;;;-1.57;46.20;98385.34;10099722;29;20055;-78
2021/03/20 21:14:05;;;;;;;6.93;3.92;;;;;;;-1.35;46.73;98386.59;10098932;29;20400;-78
2021/03/20 21:19:25;;;;;;;7.72;4.00;;;;;;;-1.16;45.64;98379.34;10086635;29;20188;-78
2021/03/20 21:24:45;;;;;;;9.48;4.40;;;;;;;-0.94;46.01;98384.81;10098435;29;20052;-78
2021/03/20 21:30:06;;;;;;;9.32;5.47;;;;;;;-0.82;45.96;98390.28;10111626;29;20104;-78
2021/03/20 21:35:26;;;;;;;10.23;5.35;;;;;;;-0.79;46.21;98378.31;10085744;29;20059;-79
2021/03/20 21:40:46;;;;;;;12.90;6.90;;;;;;;-0.83;46.24;98366.84;10134248;29;20040;-87
2021/03/20 21:46:06;;;;;;;12.32;7.40;;;;;;;-0.95;46.35;98360.66;10146827;29;20032;-89
2021/03/20 21:51:26;;;;;;;12.68;6.70;;;;;;;-1.03;46.98;98352.19;10748207;23;20027;-85
2021/03/20 21:56:55;;;;;;;14.70;6.95;;;;;;;-1.03;47.02;98345.97;10234159;23;20032;31
2021/03/20 22:02:15;;;;;;;12.23;6.88;;;;;;;-0.92;46.04;98349.44;10860860;23;20048;-88
2021/03/20 22:07:36;;;;;;;11.38;6.40;;;;;;;-0.90;47.33;98341.44;10984012;23;20040;-89
2021/03/20 22:13:16;;;;;;;14.13;5.80;;;;;;;-0.92;47.79;98326.75;10312950;23;20098;-88
2021/03/20 22:18:37;;;;;;;11.77;5.75;;;;;;;-0.91;47.37;98323.50;10079879;29;20053;-89
2021/03/20 22:23:57;;;;;;;12.88;5.93;;;;;;;-0.89;46.48;98318.28;10080632;29;20041;-88
2021/03/20 22:29:18;;;;;;;11.77;6.20;;;;;;;-0.87;46.68;98307.56;10092380;29;20033;-89
2021/03/20 22:34:39;;;;;;;10.77;5.78;;;;;;;-0.86;47.30;98302.84;10099107;29;20032;-87
2021/03/20 22:39:59;;;;;;;12.27;5.50;;;;;;;-0.83;47.62;98309.28;10090436;29;20105;-89
2021/03/20 22:45:21;;;;;;;9.98;5.43;;;;;;;-0.91;47.77;98296.09;10092196;29;20025;-89
2021/03/20 22:50:44;;;;;;;12.93;5.57;;;;;;;-0.93;46.81;98295.88;10102593;29;20056;-88
2021/03/20 22:56:05;;;;;;;9.18;5.30;;;;;;;-0.96;46.92;98288.66;10078223;29;20046;-88
2021/03/20 23:01:26;;;;;;;10.02;5.97;;;;;;;-1.00;47.59;98277.19;10159622;23;20021;-85
2021/03/20 23:07:01;;;;;;;11.77;6.32;;;;;;;-1.09;47.19;98269.25;10422388;23;20044;-89
2021/03/20 23:18:13;;;;;;;11.90;5.90;;;;;;;-1.13;47.44;98257.09;10633263;23;20063;-90
2021/03/20 23:23:34;;;;;;;11.23;6.07;;;;;;;-1.21;48.14;98246.63;10209833;29;20036;-89
2021/03/20 23:28:54;;;;;;;10.38;6.15;;;;;;;-1.25;48.27;98242.69;11415612;23;20030;-88
2021/03/20 23:34:15;;;;;;;11.57;6.50;;;;;;;-1.25;48.81;98234.47;10176528;29;20059;-88
2021/03/20 23:39:36;;;;;;;10.85;5.70;;;;;;;-1.21;48.55;98229.44;10175940;29;20041;-88
2021/03/20 23:44:56;;;;;;;10.20;6.25;;;;;;;-1.19;48.05;98221.47;10176347;29;20035;-88
2021/03/20 23:50:20;;;;;;;10.25;5.60;;;;;;;-1.12;48.42;98226.44;10159257;29;20073;-88
2021/03/20 23:55:41;;;;;;;10.57;5.57;;;;;;;-1.10;47.99;98210.22;10159098;29;20041;-88
